createdAt,value
2023-04-23T00:03:46.195Z,96259.88
2023-04-23T00:07:47.969Z,96254.00
2023-04-23T00:11:50.798Z,96283.47
2023-04-23T00:15:55.088Z,96268.44
2023-04-23T00:19:55.834Z,96282.84
2023-04-23T00:23:56.244Z,96273.81
2023-04-23T00:27:56.902Z,96264.41
2023-04-23T00:32:00.865Z,96265.03
2023-04-23T00:36:01.456Z,96269.03
2023-04-23T00:40:02.660Z,96260.63
2023-04-23T00:44:04.353Z,96259.19
2023-04-23T00:48:09.129Z,96251.41
2023-04-23T00:52:10.177Z,96258.56
2023-04-23T00:56:11.739Z,96259.53
2023-04-23T01:00:15.818Z,96254.28
2023-04-23T01:04:23.094Z,96249.38
2023-04-23T01:08:27.948Z,96258.13
2023-04-23T01:12:29.496Z,96251.06
2023-04-23T01:16:30.361Z,96224.56
2023-04-23T01:20:34.223Z,96253.25
2023-04-23T01:24:38.626Z,96251.19
2023-04-23T01:28:40.543Z,96246.31
2023-04-23T01:32:43.232Z,96255.88
2023-04-23T01:36:46.847Z,96251.78
2023-04-23T01:40:50.328Z,96251.53
2023-04-23T01:44:51.470Z,96263.75
2023-04-23T01:48:52.261Z,96260.78
2023-04-23T01:52:54.307Z,96262.72
2023-04-23T01:56:59.187Z,96266.59
2023-04-23T02:01:00.575Z,96265.09
2023-04-23T02:05:04.940Z,96269.91
2023-04-23T02:09:05.924Z,96268.75
2023-04-23T02:13:09.161Z,96269.47
2023-04-23T02:17:09.760Z,96240.94
2023-04-23T02:21:11.483Z,96256.66
2023-04-23T02:25:15.922Z,96266.72
2023-04-23T02:29:19.328Z,96260.94
2023-04-23T02:33:20.324Z,96265.03
2023-04-23T02:37:21.124Z,96264.03
2023-04-23T02:41:21.872Z,96263.25
2023-04-23T02:45:25.570Z,96263.03
2023-04-23T02:49:26.445Z,96266.22
2023-04-23T02:53:26.938Z,96265.84
2023-04-23T02:57:27.823Z,96260.00
2023-04-23T03:01:33.385Z,96269.03
2023-04-23T03:05:34.475Z,96276.13
2023-04-23T03:09:35.192Z,96275.75
2023-04-23T03:13:36.055Z,96275.91
2023-04-23T03:17:39.658Z,96291.25
2023-04-23T03:21:41.059Z,96283.19
2023-04-23T03:25:42.584Z,96282.47
2023-04-23T03:29:43.370Z,96281.97
2023-04-23T03:33:47.066Z,96277.19
2023-04-23T03:37:51.082Z,96265.84
2023-04-23T03:41:54.653Z,96278.00
2023-04-23T03:46:00.255Z,96276.16
2023-04-23T03:50:05.813Z,96277.94
2023-04-23T03:54:07.070Z,96274.13
2023-04-23T03:58:10.107Z,96273.91
2023-04-23T04:02:21.939Z,96279.41
2023-04-23T04:06:29.302Z,96296.88
2023-04-23T04:10:29.795Z,96303.00
2023-04-23T04:14:31.548Z,96292.66
2023-04-23T04:18:32.429Z,96296.25
2023-04-23T04:22:35.905Z,96283.50
2023-04-23T04:26:37.617Z,96293.22
2023-04-23T04:30:38.508Z,96306.38
2023-04-23T04:34:39.596Z,96310.19
2023-04-23T04:38:44.151Z,96313.38
2023-04-23T04:42:46.904Z,96321.53
2023-04-23T04:46:48.555Z,96319.72
2023-04-23T04:50:49.981Z,96320.94
2023-04-23T04:54:52.905Z,96319.09
2023-04-23T04:58:53.566Z,96320.53
2023-04-23T05:02:54.636Z,96325.81
2023-04-23T05:06:55.678Z,96318.66
2023-04-23T05:10:59.828Z,96335.53
2023-04-23T05:15:00.682Z,96337.97
2023-04-23T05:19:01.393Z,96346.66
2023-04-23T05:23:03.288Z,96340.03
2023-04-23T05:27:06.928Z,96336.41
2023-04-23T05:31:07.309Z,96343.97
2023-04-23T05:35:09.383Z,96350.66
2023-04-23T05:39:09.753Z,96356.47
2023-04-23T05:43:13.409Z,96358.00
2023-04-23T05:47:18.082Z,96372.53
2023-04-23T05:51:18.687Z,96374.25
2023-04-23T05:55:20.726Z,96376.78
2023-04-23T05:59:23.991Z,96383.81
2023-04-23T06:03:25.310Z,96370.94
2023-04-23T06:07:26.147Z,96375.22
2023-04-23T06:11:27.065Z,96374.66
2023-04-23T06:15:30.657Z,96393.38
2023-04-23T06:19:31.455Z,96403.97
2023-04-23T06:23:32.031Z,96401.44
2023-04-23T06:27:32.871Z,96392.91
2023-04-23T06:31:42.113Z,96402.75
2023-04-23T06:35:43.210Z,96398.16
2023-04-23T06:39:43.848Z,96394.56
2023-04-23T06:43:46.315Z,96401.13
2023-04-23T06:47:59.010Z,96412.09
2023-04-23T06:51:59.513Z,96425.75
2023-04-23T06:56:00.201Z,96417.59
2023-04-23T07:00:00.815Z,96400.75
2023-04-23T07:04:10.786Z,96405.91
2023-04-23T07:08:15.401Z,96403.31
2023-04-23T07:12:15.867Z,96393.66
2023-04-23T07:16:16.558Z,96384.22
2023-04-23T07:20:20.138Z,96401.34
2023-04-23T07:24:20.935Z,96420.44
2023-04-23T07:28:23.217Z,96410.50
2023-04-23T07:32:28.235Z,96419.25
2023-04-23T07:36:33.293Z,96412.09
2023-04-23T07:40:33.954Z,96413.88
2023-04-23T07:44:34.651Z,96403.31
2023-04-23T07:48:35.235Z,96402.63
2023-04-23T07:52:38.254Z,96419.84
2023-04-23T07:56:38.711Z,96424.81
2023-04-23T08:00:39.944Z,96421.41
2023-04-23T08:04:40.642Z,96404.91
2023-04-23T08:08:45.351Z,96381.38
2023-04-23T08:12:46.539Z,96382.22
2023-04-23T08:16:47.544Z,96385.59
2023-04-23T08:20:48.151Z,96387.88
2023-04-23T08:24:51.326Z,96391.25
2023-04-23T08:28:52.334Z,96396.38
2023-04-23T08:32:54.119Z,96396.44
2023-04-23T08:36:55.007Z,96386.94
2023-04-23T08:41:04.470Z,96390.13
2023-04-23T08:45:07.919Z,96394.34
2023-04-23T08:49:11.486Z,96386.56
2023-04-23T08:53:13.920Z,96388.00
2023-04-23T08:57:20.009Z,96375.94
2023-04-23T09:01:21.892Z,96379.41
2023-04-23T09:05:22.453Z,96381.16
2023-04-23T09:09:26.940Z,96386.69
2023-04-23T09:13:30.296Z,96381.91
2023-04-23T09:17:33.148Z,96380.56
2023-04-23T09:21:33.728Z,96372.09
2023-04-23T09:25:34.503Z,96371.69
2023-04-23T09:29:38.556Z,96368.28
2023-04-23T09:33:40.054Z,96374.00
2023-04-23T09:37:45.230Z,96353.25
2023-04-23T09:41:46.566Z,96343.56
2023-04-23T09:45:57.240Z,96358.47
2023-04-23T09:49:57.859Z,96349.59
2023-04-23T09:53:58.264Z,96363.22
2023-04-23T09:57:58.757Z,96364.72
2023-04-23T10:02:07.497Z,96362.50
2023-04-23T10:06:17.253Z,96362.38
2023-04-23T10:10:26.781Z,96366.09
2023-04-23T10:14:29.677Z,96356.31
2023-04-23T10:18:37.922Z,96351.16
2023-04-23T10:22:42.212Z,96359.97
2023-04-23T10:26:47.815Z,96355.84
2023-04-23T10:30:49.372Z,96354.53
2023-04-23T10:34:52.678Z,96352.03
2023-04-23T10:38:58.265Z,96355.03
2023-04-23T10:43:01.015Z,96352.75
2023-04-23T10:47:04.814Z,96343.69
2023-04-23T10:51:31.857Z,96343.66
2023-04-23T10:55:38.066Z,96326.13
2023-04-23T10:59:43.390Z,96327.94
2023-04-23T11:03:49.616Z,96319.88
2023-04-23T11:08:19.333Z,96323.16
2023-04-23T11:12:36.106Z,96317.66
2023-04-23T11:16:36.776Z,96316.34
2023-04-23T11:20:39.072Z,96303.63
2023-04-23T11:24:47.205Z,96301.53
2023-04-23T11:28:54.124Z,96299.00
2023-04-23T11:33:00.400Z,96289.03
2023-04-23T11:37:06.322Z,96292.41
2023-04-23T11:41:10.034Z,96285.59
2023-04-23T11:45:19.092Z,96267.00
2023-04-23T11:49:20.409Z,96274.84
2023-04-23T11:53:21.881Z,96265.09
2023-04-23T11:57:25.499Z,96259.69
2023-04-23T12:01:26.191Z,96253.66
2023-04-23T12:05:31.489Z,96251.19
2023-04-23T12:09:32.734Z,96244.91
2023-04-23T12:13:36.960Z,96256.38
2023-04-23T12:17:37.944Z,96242.56
2023-04-23T12:21:50.278Z,96243.28
2023-04-23T12:25:51.078Z,96234.09
2023-04-23T12:30:05.721Z,96236.84
2023-04-23T12:34:10.369Z,96235.28
2023-04-23T12:38:25.851Z,96224.03
2023-04-23T12:42:27.278Z,96216.91
2023-04-23T12:46:31.863Z,96219.56
2023-04-23T12:50:33.792Z,96216.78
2023-04-23T12:54:37.816Z,96214.31
2023-04-23T12:58:38.997Z,96206.06
2023-04-23T13:02:42.283Z,96193.50
2023-04-23T13:06:45.168Z,96175.94
2023-04-23T13:10:45.783Z,96185.94
2023-04-23T13:14:46.493Z,96173.72
2023-04-23T13:18:51.761Z,96174.78
2023-04-23T13:22:52.472Z,96163.81
2023-04-23T13:26:53.108Z,96166.59
2023-04-23T13:30:53.845Z,96165.97
2023-04-23T13:34:57.188Z,96154.38
2023-04-23T13:38:59.756Z,96151.56
2023-04-23T13:43:00.163Z,96144.81
2023-04-23T13:47:01.667Z,96122.25
2023-04-23T13:51:13.488Z,96107.97
2023-04-23T13:55:22.781Z,96107.94
2023-04-23T13:59:23.307Z,96108.25
2023-04-23T14:03:23.844Z,96106.16
2023-04-23T14:07:28.614Z,96095.09
2023-04-23T14:11:29.510Z,96097.56
2023-04-23T14:15:30.937Z,96084.13
2023-04-23T14:19:34.764Z,96087.25
2023-04-23T14:23:59.684Z,96060.09
2023-04-23T14:28:07.852Z,96079.97
2023-04-23T14:32:08.979Z,96075.31
2023-04-23T14:36:11.625Z,96055.00
2023-04-23T14:40:20.227Z,96056.88
2023-04-23T14:44:23.468Z,96047.69
2023-04-23T14:48:24.256Z,96031.47
2023-04-23T14:52:27.216Z,96027.19
2023-04-23T14:56:30.354Z,96020.84
2023-04-23T15:00:32.892Z,96012.16
2023-04-23T15:04:34.114Z,96014.25
2023-04-23T15:08:35.782Z,96007.25
2023-04-23T15:13:06.525Z,96011.28
2023-04-23T15:17:06.929Z,96000.03
2023-04-23T15:21:07.475Z,95988.09
2023-04-23T15:25:09.469Z,95994.13
2023-04-23T15:29:14.101Z,95972.41
2023-04-23T15:33:15.445Z,95988.88
2023-04-23T15:37:21.439Z,95986.00
2023-04-23T15:41:21.826Z,95979.47
2023-04-23T15:45:27.436Z,95981.28
2023-04-23T15:49:27.874Z,95962.97
2023-04-23T15:53:30.559Z,95959.06
2023-04-23T15:57:33.537Z,95954.28
2023-04-23T16:01:38.088Z,95948.56
2023-04-23T16:05:38.916Z,95941.28
2023-04-23T16:09:39.786Z,95943.81
2023-04-23T16:13:41.784Z,95940.69
2023-04-23T16:17:45.545Z,95937.09
2023-04-23T16:21:46.252Z,95927.66
2023-04-23T16:25:47.607Z,95928.19
2023-04-23T16:29:51.130Z,95920.84
2023-04-23T16:33:54.628Z,95917.63
2023-04-23T16:37:55.972Z,95909.56
2023-04-23T16:41:58.561Z,95917.03
2023-04-23T16:46:02.493Z,95911.75
2023-04-23T16:50:06.145Z,95910.38
2023-04-23T16:54:07.249Z,95912.59
2023-04-23T16:58:14.886Z,95898.84
2023-04-23T17:02:15.548Z,95907.13
2023-04-23T17:06:29.955Z,95908.16
2023-04-23T17:10:30.404Z,95898.25
2023-04-23T17:14:31.134Z,95895.63
2023-04-23T17:18:34.656Z,95900.34
2023-04-23T17:22:38.533Z,95897.53
2023-04-23T17:26:39.969Z,95904.63
2023-04-23T17:30:41.157Z,95899.09
2023-04-23T17:34:43.460Z,95891.50
2023-04-23T17:38:49.485Z,95888.84
2023-04-23T17:42:50.083Z,95889.25
2023-04-23T17:46:52.214Z,95885.47
2023-04-23T17:50:54.754Z,95885.59
2023-04-23T17:54:57.829Z,95880.44
2023-04-23T17:58:59.321Z,95868.97
2023-04-23T18:03:01.065Z,95865.81
2023-04-23T18:07:01.907Z,95882.13
2023-04-23T18:11:05.994Z,95877.81
2023-04-23T18:15:12.586Z,95878.50
2023-04-23T18:19:14.683Z,95868.53
2023-04-23T18:23:15.826Z,95880.03
2023-04-23T18:27:19.888Z,95886.09
2023-04-23T18:31:21.846Z,95875.44
2023-04-23T18:35:22.654Z,95838.03
2023-04-23T18:39:23.310Z,95879.63
2023-04-23T18:43:28.643Z,95871.34
2023-04-23T18:47:37.214Z,95860.56
2023-04-23T18:51:47.217Z,95862.81
2023-04-23T18:55:50.863Z,95865.28
2023-04-23T18:59:54.369Z,95872.53
2023-04-23T19:03:56.851Z,95868.97
2023-04-23T19:07:57.425Z,95884.97
2023-04-23T19:12:01.744Z,95884.09
2023-04-23T19:16:04.929Z,95888.44
2023-04-23T19:20:05.746Z,95892.06
2023-04-23T19:24:07.324Z,95883.44
2023-04-23T19:28:08.504Z,95889.91
2023-04-23T19:32:11.587Z,95886.75
2023-04-23T19:36:15.164Z,95866.50
2023-04-23T19:40:16.544Z,95870.22
2023-04-23T19:44:18.462Z,95885.41
2023-04-23T19:48:23.242Z,95949.84
2023-04-23T19:52:30.062Z,96055.19
2023-04-23T19:56:33.816Z,96055.81
2023-04-23T20:00:37.867Z,96061.78
2023-04-23T20:04:43.282Z,96059.50
2023-04-23T20:09:04.786Z,96058.16
2023-04-23T20:13:05.764Z,96053.31
2023-04-23T20:17:06.421Z,96052.38
2023-04-23T20:21:09.950Z,96052.28
2023-04-23T20:25:13.531Z,96044.75
2023-04-23T20:29:14.314Z,95999.78
2023-04-23T20:33:16.129Z,95967.94
2023-04-23T20:37:24.116Z,95958.97
2023-04-23T20:41:27.112Z,95966.31
2023-04-23T20:45:27.493Z,95967.31
2023-04-23T20:49:29.058Z,95998.00
2023-04-23T20:53:33.315Z,95979.72
2023-04-23T20:57:34.921Z,95981.31
2023-04-23T21:01:35.601Z,95987.34
2023-04-23T21:05:38.776Z,95970.00
2023-04-23T21:09:42.256Z,95983.56
2023-04-23T21:13:46.408Z,95972.84
2023-04-23T21:17:48.424Z,95981.81
2023-04-23T21:21:49.144Z,95985.03
2023-04-23T21:25:52.812Z,95982.50
2023-04-23T21:29:54.838Z,95990.69
2023-04-23T21:33:56.847Z,95968.47
2023-04-23T21:37:57.793Z,95989.34
2023-04-23T21:42:05.204Z,95976.88
2023-04-23T21:46:07.346Z,95974.69
2023-04-23T21:50:11.215Z,95962.19
2023-04-23T21:54:12.358Z,95973.50
2023-04-23T21:58:17.976Z,95982.88
2023-04-23T22:02:20.344Z,95972.44
2023-04-23T22:06:21.455Z,95974.31
2023-04-23T22:10:24.292Z,95966.75
2023-04-23T22:14:27.698Z,95965.84
2023-04-23T22:18:31.471Z,95959.84
2023-04-23T22:22:32.103Z,95970.53
2023-04-23T22:26:36.340Z,95959.81
2023-04-23T22:30:40.402Z,95970.94
2023-04-23T22:34:42.066Z,95961.38
2023-04-23T22:38:43.599Z,95963.38
2023-04-23T22:42:49.230Z,95960.66
2023-04-23T22:46:52.613Z,95957.28
2023-04-23T22:50:54.326Z,95975.56
2023-04-23T22:54:55.245Z,95961.66
2023-04-23T22:58:55.878Z,95966.22
2023-04-23T23:02:59.535Z,95952.06
2023-04-23T23:06:59.893Z,95950.03
2023-04-23T23:11:00.211Z,95947.56
2023-04-23T23:15:02.116Z,95965.63
2023-04-23T23:19:09.749Z,95960.34
2023-04-23T23:23:10.359Z,95965.03
2023-04-23T23:27:11.505Z,95957.09
2023-04-23T23:31:13.068Z,95959.66
2023-04-23T23:35:16.617Z,95948.34
2023-04-23T23:39:19.317Z,95960.84
2023-04-23T23:43:19.844Z,95946.16
2023-04-23T23:47:22.231Z,95954.53
2023-04-23T23:51:26.234Z,95951.34
2023-04-23T23:55:26.942Z,95952.34
2023-04-23T23:59:28.199Z,95951.53
